Time;durP1;ratioP1;P1;durP2;ratioP2;P2;SDS_P1;SDS_P2;PMS_P1;PMS_P2;Temp;Humidity;BMP_temperature;BMP_pressure;BME280_temperature;BME280_humidity;BME280_pressure;Samples;Min_cycle;Max_cycle;Signal;HPM_P1;HPM_P2
2021/12/17 00:07:07;;;;;;;41.25;27.33;;;;;;;;;;5067173;28;20918;-75
2021/12/17 00:09:33;;;;;;;44.90;26.25;;;;;;;;;;5048097;28;20419;-75
2021/12/17 00:11:59;;;;;;;44.55;27.77;;;;;;;;;;5058190;28;20709;-75
2021/12/17 00:14:28;;;;;;;52.00;29.17;;;;;;;;;;5067917;28;20047;-75
2021/12/17 00:16:55;;;;;;;45.72;28.30;;;;;;;;;;5066655;28;20052;-74
2021/12/17 00:49:28;;;;;;;35.83;20.33;;;;;;;;;;5066595;28;20071;-75
2021/12/17 00:54:35;;;;;;;30.55;18.05;;;;;;;;;;5052688;28;20044;-75
2021/12/17 00:57:04;;;;;;;33.72;19.08;;;;;;;;;;5054529;28;20082;-75
2021/12/17 00:59:30;;;;;;;39.33;24.67;;;;;;;;;;5052474;28;20725;-74
2021/12/17 01:01:57;;;;;;;32.53;19.75;;;;;;;;;;5052740;28;20061;-75
2021/12/17 01:04:23;;;;;;;30.55;18.27;;;;;;;;;;5051989;28;20396;-74
2021/12/17 01:06:49;;;;;;;34.33;18.17;;;;;;;;;;5052753;28;20079;-75
2021/12/17 01:09:17;;;;;;;33.42;20.17;;;;;;;;;;5051277;28;20029;-74
2021/12/17 01:11:43;;;;;;;32.35;17.95;;;;;;;;;;5051965;28;20060;-75
2021/12/17 01:14:09;;;;;;;32.67;19.77;;;;;;;;;;5051330;28;20644;-74
2021/12/17 01:16:36;;;;;;;35.65;20.77;;;;;;;;;;5051912;28;20053;-75
2021/12/17 01:19:14;;;;;;;40.17;21.35;;;;;;;;;;5050954;28;20029;-75
2021/12/17 01:22:02;;;;;;;30.77;18.38;;;;;;;;;;5051696;28;20502;-75
2021/12/17 01:24:40;;;;;;;34.60;21.08;;;;;;;;;;5038239;28;20444;-75
2021/12/17 01:35:41;;;;;;;32.42;19.88;;;;;;;;;;5002158;28;20034;-74
2021/12/17 01:43:26;;;;;;;32.72;20.65;;;;;;;;;;5031399;28;20474;-75
2021/12/17 01:45:52;;;;;;;32.30;17.73;;;;;;;;;;5041206;28;20083;-75
2021/12/17 01:48:23;;;;;;;31.08;19.45;;;;;;;;;;5031059;28;20483;-75
2021/12/17 02:01:40;;;;;;;31.73;21.15;;;;;;;;;;5050493;28;20190;-75
2021/12/17 02:04:06;;;;;;;31.40;20.73;;;;;;;;;;5049986;28;20040;-75
2021/12/17 02:06:35;;;;;;;33.20;21.73;;;;;;;;;;5050168;28;20112;-75
2021/12/17 02:09:02;;;;;;;33.20;20.92;;;;;;;;;;5050888;28;20033;-75
2021/12/17 02:30:39;;;;;;;20.88;11.98;;;;;;;;;;5041791;28;20098;-75
2021/12/17 02:32:55;;;;;;;24.85;15.90;;;;;;;;;;5048683;28;20124;-74
2021/12/17 02:35:31;;;;;;;27.75;18.02;;;;;;;;;;5049884;28;20379;-75
2021/12/17 02:37:57;;;;;;;30.45;18.60;;;;;;;;;;5049062;28;20037;-75
2021/12/17 02:45:54;;;;;;;25.58;15.15;;;;;;;;;;5049931;28;20044;-75
2021/12/17 02:48:24;;;;;;;26.55;15.50;;;;;;;;;;5049306;28;20029;-76
2021/12/17 02:50:54;;;;;;;25.52;16.50;;;;;;;;;;5049789;28;20060;-75
2021/12/17 02:53:21;;;;;;;25.30;16.05;;;;;;;;;;5049369;28;20029;-76
2021/12/17 02:55:54;;;;;;;27.55;16.45;;;;;;;;;;5049848;28;20041;-75
2021/12/17 02:58:25;;;;;;;25.67;15.57;;;;;;;;;;5049108;28;20033;-76
2021/12/17 03:00:51;;;;;;;28.67;15.85;;;;;;;;;;5049540;28;20041;-75
2021/12/17 03:03:20;;;;;;;28.45;16.45;;;;;;;;;;5034409;28;20095;-74
2021/12/17 03:05:46;;;;;;;28.42;16.67;;;;;;;;;;5030014;28;20125;-75
2021/12/17 03:08:14;;;;;;;31.48;17.83;;;;;;;;;;5041471;28;20029;-75
2021/12/17 03:10:41;;;;;;;24.85;15.45;;;;;;;;;;5049314;28;20037;-75
2021/12/17 03:13:07;;;;;;;29.05;18.10;;;;;;;;;;5048772;28;20040;-75
2021/12/17 03:15:38;;;;;;;28.65;16.73;;;;;;;;;;5047229;28;20482;-75
2021/12/17 03:23:29;;;;;;;33.65;17.48;;;;;;;;;;5028627;28;20083;-75
2021/12/17 03:26:00;;;;;;;31.42;19.65;;;;;;;;;;5035166;28;20074;-75
2021/12/17 03:28:26;;;;;;;28.60;18.23;;;;;;;;;;5048728;28;20107;-75
2021/12/17 03:30:52;;;;;;;30.52;19.83;;;;;;;;;;5044295;28;20563;-75
2021/12/17 03:33:18;;;;;;;29.75;18.77;;;;;;;;;;5042360;28;20033;-75
2021/12/17 03:35:44;;;;;;;26.17;16.42;;;;;;;;;;5048464;28;20037;-75
2021/12/17 03:38:10;;;;;;;28.75;17.05;;;;;;;;;;5047540;28;20083;-75
2021/12/17 03:40:36;;;;;;;32.47;20.95;;;;;;;;;;5048468;28;20437;-74
2021/12/17 03:43:11;;;;;;;28.13;16.92;;;;;;;;;;5045357;28;20033;-75
2021/12/17 03:45:37;;;;;;;27.55;17.23;;;;;;;;;;5036282;28;20030;-75
2021/12/17 03:48:03;;;;;;;29.08;17.67;;;;;;;;;;5029044;28;20033;-75
2021/12/17 03:50:33;;;;;;;30.90;18.52;;;;;;;;;;5028852;28;20065;-76
2021/12/17 03:52:59;;;;;;;28.75;16.58;;;;;;;;;;5041063;28;20033;-75
2021/12/17 03:55:25;;;;;;;31.15;18.02;;;;;;;;;;5048975;28;20041;-74
2021/12/17 03:57:51;;;;;;;28.90;17.88;;;;;;;;;;5030322;28;20068;-75
2021/12/17 04:00:17;;;;;;;32.03;19.90;;;;;;;;;;5048859;28;20489;-75
2021/12/17 04:02:44;;;;;;;30.70;19.77;;;;;;;;;;5048482;28;20033;-75
2021/12/17 04:05:10;;;;;;;32.22;20.08;;;;;;;;;;5048627;28;20033;-75
2021/12/17 04:07:36;;;;;;;32.42;20.92;;;;;;;;;;5048629;28;20029;-75
2021/12/17 04:10:02;;;;;;;30.25;19.48;;;;;;;;;;5048147;28;20029;-75
2021/12/17 04:12:43;;;;;;;25.23;15.57;;;;;;;;;;5048922;28;20040;-74
2021/12/17 04:15:09;;;;;;;25.42;16.45;;;;;;;;;;5031166;28;20033;-75
2021/12/17 04:17:43;;;;;;;31.52;19.55;;;;;;;;;;5048833;28;20037;-75
2021/12/17 04:20:09;;;;;;;30.70;20.10;;;;;;;;;;5029396;28;20033;-75
2021/12/17 04:22:35;;;;;;;34.65;21.35;;;;;;;;;;5048569;28;20029;-75
2021/12/17 04:25:01;;;;;;;30.52;19.55;;;;;;;;;;5048784;28;20129;-75
2021/12/17 04:27:27;;;;;;;30.10;17.95;;;;;;;;;;5032931;28;20152;-75
2021/12/17 04:29:55;;;;;;;29.20;17.38;;;;;;;;;;5052353;28;20593;-75
2021/12/17 04:32:22;;;;;;;32.17;19.08;;;;;;;;;;5052151;28;20036;-75
2021/12/17 04:34:48;;;;;;;38.72;22.25;;;;;;;;;;5051106;28;20043;-75
2021/12/17 04:37:14;;;;;;;50.58;28.88;;;;;;;;;;5051812;28;20037;-75
2021/12/17 04:39:40;;;;;;;52.83;32.78;;;;;;;;;;5052488;28;20064;-75
2021/12/17 04:42:14;;;;;;;46.42;28.45;;;;;;;;;;5051272;28;20064;-75
2021/12/17 04:44:48;;;;;;;33.58;21.85;;;;;;;;;;5052429;28;20099;-75
2021/12/17 04:57:57;;;;;;;30.73;18.65;;;;;;;;;;5032229;28;20036;-75
2021/12/17 05:00:26;;;;;;;34.28;21.35;;;;;;;;;;5045061;28;20033;-75
2021/12/17 05:02:54;;;;;;;30.00;19.88;;;;;;;;;;5051820;28;20075;-75
2021/12/17 05:05:21;;;;;;;31.13;21.20;;;;;;;;;;5051645;28;20057;-75
2021/12/17 05:07:53;;;;;;;33.17;20.25;;;;;;;;;;5050675;28;20035;-75
2021/12/17 05:18:19;;;;;;;33.33;19.40;;;;;;;;;;5051052;28;20121;-75
2021/12/17 05:20:50;;;;;;;31.45;19.65;;;;;;;;;;5051861;28;20029;-75
2021/12/17 05:23:22;;;;;;;29.03;17.83;;;;;;;;;;5051040;28;20032;-75
2021/12/17 05:25:48;;;;;;;31.27;18.95;;;;;;;;;;5051973;28;20279;-75
2021/12/17 05:28:14;;;;;;;32.22;18.45;;;;;;;;;;5049234;28;20041;-75
2021/12/17 05:30:45;;;;;;;31.65;18.75;;;;;;;;;;5051273;28;20040;-75
2021/12/17 05:33:12;;;;;;;31.45;19.33;;;;;;;;;;5050447;28;20055;-75
2021/12/17 05:35:38;;;;;;;31.00;18.08;;;;;;;;;;5051783;28;20089;-75
2021/12/17 05:38:04;;;;;;;28.95;18.98;;;;;;;;;;5050981;28;20064;-74
2021/12/17 05:40:30;;;;;;;28.73;17.92;;;;;;;;;;5051939;28;20092;-75
2021/12/17 05:42:59;;;;;;;28.90;19.20;;;;;;;;;;5050647;28;20036;-74
2021/12/17 05:45:34;;;;;;;27.88;18.23;;;;;;;;;;5051006;28;20036;-75
2021/12/17 05:48:01;;;;;;;31.77;18.85;;;;;;;;;;5050314;28;20364;-75
2021/12/17 05:50:27;;;;;;;28.88;18.58;;;;;;;;;;5032828;28;20052;-75
2021/12/17 05:52:53;;;;;;;30.05;18.65;;;;;;;;;;5050846;28;20036;-75
2021/12/17 05:55:19;;;;;;;29.23;17.58;;;;;;;;;;5050476;28;20052;-75
2021/12/17 05:57:45;;;;;;;29.10;18.35;;;;;;;;;;5050833;28;20066;-75
2021/12/17 06:00:12;;;;;;;29.50;17.88;;;;;;;;;;5050095;28;20037;-75
2021/12/17 06:02:38;;;;;;;30.58;19.85;;;;;;;;;;5050198;28;20036;-75
2021/12/17 06:05:04;;;;;;;29.92;16.88;;;;;;;;;;5044908;28;20040;-75
2021/12/17 06:07:30;;;;;;;31.08;18.48;;;;;;;;;;5050886;28;20126;-75
2021/12/17 06:10:03;;;;;;;31.45;19.27;;;;;;;;;;5055004;28;20796;-75
2021/12/17 06:12:29;;;;;;;29.00;19.00;;;;;;;;;;5030599;28;20109;-74
2021/12/17 06:14:55;;;;;;;27.45;17.27;;;;;;;;;;5038711;28;20146;-75
2021/12/17 06:17:21;;;;;;;30.83;18.45;;;;;;;;;;5050333;28;20830;-75
2021/12/17 06:19:47;;;;;;;27.40;17.23;;;;;;;;;;5049501;28;20036;-75
2021/12/17 06:22:15;;;;;;;31.17;18.20;;;;;;;;;;5054400;28;20036;-75
2021/12/17 06:24:44;;;;;;;31.60;18.88;;;;;;;;;;5043463;28;20057;-75
2021/12/17 06:27:11;;;;;;;29.20;19.48;;;;;;;;;;5049013;28;20459;-75
2021/12/17 06:29:37;;;;;;;30.05;18.65;;;;;;;;;;5049296;28;20033;-75
2021/12/17 06:32:03;;;;;;;24.60;16.42;;;;;;;;;;5049284;28;20067;-74
2021/12/17 06:34:29;;;;;;;24.42;15.32;;;;;;;;;;5050877;28;20048;-75
2021/12/17 06:36:55;;;;;;;25.55;15.45;;;;;;;;;;5057757;28;20032;-75
2021/12/17 06:39:21;;;;;;;26.42;16.90;;;;;;;;;;5051650;28;20036;-75
2021/12/17 06:41:47;;;;;;;24.50;15.00;;;;;;;;;;5047525;28;20032;-75
2021/12/17 06:44:17;;;;;;;25.92;16.02;;;;;;;;;;5055077;28;20025;-75
2021/12/17 06:46:59;;;;;;;28.05;16.90;;;;;;;;;;5053367;28;20029;-75
2021/12/17 06:49:41;;;;;;;24.17;15.73;;;;;;;;;;5029397;28;20757;-75
2021/12/17 07:01:05;;;;;;;22.92;13.38;;;;;;;;;;5048798;28;20083;-75
2021/12/17 07:06:06;;;;;;;23.08;13.82;;;;;;;;;;5040830;28;20047;-75
2021/12/17 07:11:34;;;;;;;26.63;15.60;;;;;;;;;;5047487;28;20865;-74
2021/12/17 07:22:15;;;;;;;23.17;14.65;;;;;;;;;;5049956;28;20041;-75
2021/12/17 07:35:41;;;;;;;27.63;17.10;;;;;;;;;;5044559;28;20037;-75
2021/12/17 07:40:52;;;;;;;32.35;19.20;;;;;;;;;;5034692;28;20094;-75
2021/12/17 07:43:28;;;;;;;28.83;18.00;;;;;;;;;;5039424;28;20029;-75
2021/12/17 07:45:55;;;;;;;25.77;15.73;;;;;;;;;;5040992;28;20039;-75
2021/12/17 07:48:21;;;;;;;33.08;18.10;;;;;;;;;;5046278;28;20052;-75
2021/12/17 07:50:47;;;;;;;30.70;18.25;;;;;;;;;;5052144;28;20073;-74
2021/12/17 07:53:13;;;;;;;32.60;19.88;;;;;;;;;;5055597;28;20024;-75
2021/12/17 07:55:39;;;;;;;32.92;19.30;;;;;;;;;;5049048;28;20172;-75
2021/12/17 07:58:05;;;;;;;26.75;16.27;;;;;;;;;;5046264;28;20108;-74
2021/12/17 08:00:31;;;;;;;26.08;17.20;;;;;;;;;;5046561;28;20490;-74
2021/12/17 08:02:57;;;;;;;27.65;17.27;;;;;;;;;;5053891;28;20021;-75
2021/12/17 08:05:23;;;;;;;27.85;16.63;;;;;;;;;;5060655;28;20112;-75
2021/12/17 08:07:49;;;;;;;29.88;18.88;;;;;;;;;;5055556;28;20034;-75
2021/12/17 08:10:16;;;;;;;27.23;17.88;;;;;;;;;;5053672;28;20143;-75
2021/12/17 08:12:42;;;;;;;28.33;17.48;;;;;;;;;;5059282;28;20490;-75
2021/12/17 08:15:10;;;;;;;29.40;18.58;;;;;;;;;;5057657;28;20090;-74
2021/12/17 08:28:22;;;;;;;27.67;18.25;;;;;;;;;;5053527;28;20082;-75
2021/12/17 08:30:50;;;;;;;28.65;17.73;;;;;;;;;;5047416;28;20059;-75
2021/12/17 08:33:20;;;;;;;25.60;16.83;;;;;;;;;;5052450;28;20049;-75
2021/12/17 08:35:46;;;;;;;28.45;15.38;;;;;;;;;;5055666;28;20387;-75
2021/12/17 08:38:12;;;;;;;27.67;16.58;;;;;;;;;;5030062;28;20037;-75
2021/12/17 08:40:38;;;;;;;27.60;16.23;;;;;;;;;;5042266;28;20041;-75
2021/12/17 08:43:04;;;;;;;24.20;15.35;;;;;;;;;;5049896;28;20032;-74
2021/12/17 08:45:31;;;;;;;26.42;16.40;;;;;;;;;;5053845;28;20065;-75
2021/12/17 08:47:57;;;;;;;21.10;13.60;;;;;;;;;;5049308;28;20025;-75
2021/12/17 08:50:24;;;;;;;26.70;15.50;;;;;;;;;;5048462;28;20613;-75
2021/12/17 08:52:50;;;;;;;24.52;15.25;;;;;;;;;;5056962;28;20072;-75
2021/12/17 08:55:16;;;;;;;22.30;13.27;;;;;;;;;;5038249;28;20107;-75
2021/12/17 08:57:42;;;;;;;23.65;14.73;;;;;;;;;;5051914;28;20024;-75
2021/12/17 09:00:10;;;;;;;23.05;14.85;;;;;;;;;;5065082;28;20044;-75
2021/12/17 09:02:37;;;;;;;21.85;12.55;;;;;;;;;;5061556;28;20617;-75
2021/12/17 09:05:04;;;;;;;23.50;15.20;;;;;;;;;;5055104;28;20106;-75
2021/12/17 09:07:30;;;;;;;27.83;16.85;;;;;;;;;;5059083;28;20074;-75
2021/12/17 09:09:56;;;;;;;25.60;15.15;;;;;;;;;;5052351;28;20911;-75
2021/12/17 09:12:22;;;;;;;20.33;13.02;;;;;;;;;;5054980;28;20043;-75
2021/12/17 09:14:48;;;;;;;21.63;13.52;;;;;;;;;;5062005;28;20111;-75
2021/12/17 09:17:14;;;;;;;26.00;14.30;;;;;;;;;;5057894;28;20505;-75
2021/12/17 09:19:40;;;;;;;23.30;14.07;;;;;;;;;;5074384;28;20037;-74
2021/12/17 09:22:07;;;;;;;27.40;17.15;;;;;;;;;;5048329;28;20029;-75
2021/12/17 09:24:33;;;;;;;23.73;15.52;;;;;;;;;;5052639;28;20116;-75
2021/12/17 09:26:59;;;;;;;28.88;18.83;;;;;;;;;;5054357;28;20032;-75
2021/12/17 09:29:27;;;;;;;29.13;17.45;;;;;;;;;;5056872;28;20083;-75
2021/12/17 09:31:53;;;;;;;27.90;17.55;;;;;;;;;;5071787;28;20040;-75
2021/12/17 09:34:19;;;;;;;27.40;17.27;;;;;;;;;;5056597;28;20036;-75
2021/12/17 09:36:45;;;;;;;26.58;16.75;;;;;;;;;;5051110;28;20025;-75
2021/12/17 09:39:11;;;;;;;24.83;15.65;;;;;;;;;;5058151;28;20033;-75
2021/12/17 09:41:37;;;;;;;26.83;17.30;;;;;;;;;;5049815;28;20067;-75
2021/12/17 09:44:03;;;;;;;29.48;18.73;;;;;;;;;;5047141;28;20671;-75
2021/12/17 09:46:29;;;;;;;31.85;19.48;;;;;;;;;;5049808;28;20028;-74
2021/12/17 09:48:57;;;;;;;28.80;17.70;;;;;;;;;;5062703;28;20467;-75
2021/12/17 09:51:23;;;;;;;30.60;17.27;;;;;;;;;;5052478;28;20076;-75
2021/12/17 09:53:49;;;;;;;26.92;18.20;;;;;;;;;;5048962;28;20039;-75
2021/12/17 09:56:16;;;;;;;29.77;18.15;;;;;;;;;;5057639;28;20032;-75
2021/12/17 09:58:42;;;;;;;27.17;16.90;;;;;;;;;;5051422;28;20040;-75
2021/12/17 10:01:08;;;;;;;27.95;18.70;;;;;;;;;;5050519;28;20036;-75
2021/12/17 10:03:34;;;;;;;38.72;18.77;;;;;;;;;;5044688;28;20037;-75
2021/12/17 10:06:00;;;;;;;43.00;19.52;;;;;;;;;;5043373;28;20033;-75
2021/12/17 10:08:26;;;;;;;30.27;17.83;;;;;;;;;;5049254;28;20128;-75
2021/12/17 10:10:59;;;;;;;43.75;18.58;;;;;;;;;;5054829;28;20860;-75
2021/12/17 10:13:27;;;;;;;33.95;16.83;;;;;;;;;;5057085;28;20479;-74
2021/12/17 10:15:58;;;;;;;26.63;15.95;;;;;;;;;;5060579;28;20037;-75
2021/12/17 10:18:37;;;;;;;56.28;28.20;;;;;;;;;;5056885;28;20028;-75
2021/12/17 10:21:08;;;;;;;39.47;22.77;;;;;;;;;;5064063;28;20037;-75
2021/12/17 10:23:35;;;;;;;29.20;17.55;;;;;;;;;;5064385;28;20033;-74
2021/12/17 10:26:01;;;;;;;28.15;17.38;;;;;;;;;;5056327;28;20065;-75
2021/12/17 10:28:29;;;;;;;27.05;17.83;;;;;;;;;;5050965;28;20024;-75
2021/12/17 10:30:55;;;;;;;27.45;18.13;;;;;;;;;;5051401;28;20035;-75
2021/12/17 10:33:24;;;;;;;23.88;15.40;;;;;;;;;;5050129;28;20052;-74
2021/12/17 10:35:51;;;;;;;27.80;17.20;;;;;;;;;;5059106;28;20471;-75
2021/12/17 10:38:19;;;;;;;30.63;18.30;;;;;;;;;;5065794;28;20028;-75
2021/12/17 10:41:01;;;;;;;29.55;19.33;;;;;;;;;;5054146;28;20033;-74
2021/12/17 10:43:32;;;;;;;;;;;;;;;;;;5038996;28;20032;-75
2021/12/17 10:46:04;;;;;;;31.17;17.75;;;;;;;;;;5047497;28;19939;-75
2021/12/17 10:51:28;;;;;;;28.63;17.90;;;;;;;;;;5052499;28;20062;-75
2021/12/17 10:53:54;;;;;;;;;;;;;;;;;;5056143;28;20025;-75
2021/12/17 10:56:22;;;;;;;28.80;16.90;;;;;;;;;;5049362;28;19917;-74
2021/12/17 10:59:02;;;;;;;31.77;17.98;;;;;;;;;;5056127;28;20099;-75
2021/12/17 11:01:29;;;;;;;32.50;20.55;;;;;;;;;;5048387;28;20104;-75
2021/12/17 11:04:15;;;;;;;29.85;19.73;;;;;;;;;;5050729;28;20112;-75
2021/12/17 11:06:42;;;;;;;28.50;18.23;;;;;;;;;;5049320;28;20475;-75
2021/12/17 11:09:08;;;;;;;29.60;20.23;;;;;;;;;;5047209;28;20037;-75
2021/12/17 11:11:41;;;;;;;31.65;20.80;;;;;;;;;;5055533;28;20024;-75
2021/12/17 11:14:07;;;;;;;;;;;;;;;;;;5044974;28;20041;-75
2021/12/17 11:16:33;;;;;;;31.55;20.60;;;;;;;;;;5046299;28;19916;-75
2021/12/17 11:18:59;;;;;;;32.60;19.63;;;;;;;;;;5048337;28;20029;-75
2021/12/17 11:21:25;;;;;;;34.72;21.85;;;;;;;;;;5051087;28;20052;-75
2021/12/17 11:23:51;;;;;;;33.47;20.80;;;;;;;;;;5048586;28;20036;-75
2021/12/17 11:26:18;;;;;;;31.42;20.13;;;;;;;;;;5048056;28;20695;-75
2021/12/17 11:28:46;;;;;;;35.92;21.65;;;;;;;;;;5046414;28;20032;-75
2021/12/17 11:31:12;;;;;;;34.38;21.80;;;;;;;;;;5046741;28;20029;-74
2021/12/17 11:33:39;;;;;;;33.55;23.02;;;;;;;;;;5048744;28;20031;-75
2021/12/17 11:36:05;;;;;;;32.92;21.15;;;;;;;;;;5046984;28;20044;-75
2021/12/17 11:38:43;;;;;;;33.53;21.60;;;;;;;;;;5054241;28;20029;-75
2021/12/17 11:41:14;;;;;;;34.55;22.25;;;;;;;;;;5053937;28;20085;-75
2021/12/17 11:43:51;;;;;;;38.45;22.27;;;;;;;;;;5058025;28;20067;-75
2021/12/17 11:46:18;;;;;;;41.83;26.83;;;;;;;;;;5046916;28;20033;-75
2021/12/17 11:48:51;;;;;;;42.67;24.98;;;;;;;;;;5049230;28;20055;-75
2021/12/17 11:51:19;;;;;;;39.83;24.05;;;;;;;;;;5056418;28;20057;-75
2021/12/17 11:53:55;;;;;;;42.75;27.55;;;;;;;;;;5048272;28;20086;-75
2021/12/17 11:56:40;;;;;;;47.97;26.27;;;;;;;;;;5048676;28;20426;-75
2021/12/17 11:59:08;;;;;;;39.65;23.75;;;;;;;;;;5047992;28;20056;-74
2021/12/17 12:01:57;;;;;;;39.45;25.65;;;;;;;;;;5050139;28;20033;-74
2021/12/17 12:04:32;;;;;;;50.78;28.80;;;;;;;;;;5048942;28;20029;-75
2021/12/17 12:07:19;;;;;;;43.22;26.65;;;;;;;;;;5036058;28;20025;-75
2021/12/17 12:09:57;;;;;;;40.55;25.58;;;;;;;;;;5045278;28;20044;-75
2021/12/17 12:12:35;;;;;;;41.28;23.95;;;;;;;;;;5049120;28;20112;-75
2021/12/17 12:15:24;;;;;;;41.13;24.48;;;;;;;;;;5053315;28;20072;-75
2021/12/17 12:18:02;;;;;;;41.78;23.67;;;;;;;;;;5044994;28;20057;-75
2021/12/17 12:20:40;;;;;;;45.67;27.05;;;;;;;;;;5050011;28;20065;-75
2021/12/17 12:23:17;;;;;;;41.30;25.17;;;;;;;;;;5047780;28;20112;-75
2021/12/17 12:25:45;;;;;;;39.92;24.40;;;;;;;;;;5051367;28;20039;-75
2021/12/17 12:28:11;;;;;;;37.17;23.83;;;;;;;;;;5058681;28;20382;-75
2021/12/17 12:30:39;;;;;;;36.78;21.50;;;;;;;;;;5053271;28;20037;-75
2021/12/17 12:33:05;;;;;;;36.88;22.40;;;;;;;;;;5048439;28;20033;-75
2021/12/17 12:35:32;;;;;;;35.88;22.25;;;;;;;;;;5055275;28;20125;-75
2021/12/17 12:38:17;;;;;;;37.30;22.75;;;;;;;;;;5050301;28;20047;-75
2021/12/17 12:40:51;;;;;;;35.42;20.30;;;;;;;;;;5053372;28;20583;-75
2021/12/17 12:43:30;;;;;;;37.97;24.30;;;;;;;;;;5052985;28;20040;-75
2021/12/17 12:45:57;;;;;;;40.95;25.25;;;;;;;;;;5056551;28;20147;-75
2021/12/17 12:48:33;;;;;;;38.92;24.33;;;;;;;;;;5056255;28;20461;-75
2021/12/17 12:51:31;;;;;;;39.80;24.75;;;;;;;;;;5051566;28;20068;-75
2021/12/17 12:54:06;;;;;;;38.03;23.48;;;;;;;;;;5040386;28;20056;-75
2021/12/17 12:56:32;;;;;;;39.47;23.92;;;;;;;;;;5051817;28;20433;-75
2021/12/17 12:58:59;;;;;;;37.25;22.00;;;;;;;;;;5053420;28;20033;-76
2021/12/17 13:01:25;;;;;;;35.60;22.15;;;;;;;;;;5051733;28;20467;-75
2021/12/17 13:03:51;;;;;;;41.65;24.77;;;;;;;;;;5054111;28;20036;-75
2021/12/17 13:06:20;;;;;;;35.40;23.05;;;;;;;;;;5051718;28;20450;-75
2021/12/17 13:08:56;;;;;;;46.28;27.65;;;;;;;;;;5047454;28;20053;-75
2021/12/17 13:11:23;;;;;;;34.30;21.50;;;;;;;;;;5057666;28;20461;-75
2021/12/17 13:13:58;;;;;;;32.15;19.42;;;;;;;;;;5060019;28;20526;-76
2021/12/17 13:21:59;;;;;;;35.38;22.40;;;;;;;;;;5047529;28;20075;-75
2021/12/17 13:24:29;;;;;;;39.92;24.63;;;;;;;;;;5046545;28;20079;-75
2021/12/17 13:26:57;;;;;;;42.30;27.15;;;;;;;;;;5063570;28;20029;-75
2021/12/17 13:29:24;;;;;;;43.55;26.10;;;;;;;;;;5048613;28;20037;-75
2021/12/17 13:31:53;;;;;;;35.90;22.98;;;;;;;;;;5047829;28;20072;-75
2021/12/17 13:34:19;;;;;;;35.15;22.42;;;;;;;;;;5050190;28;20028;-75
2021/12/17 13:37:04;;;;;;;33.95;21.75;;;;;;;;;;5054404;28;20056;-75
2021/12/17 13:39:38;;;;;;;28.63;17.92;;;;;;;;;;5046008;28;20033;-75
2021/12/17 13:42:04;;;;;;;28.65;18.35;;;;;;;;;;5047508;28;20591;-74
2021/12/17 13:44:31;;;;;;;33.15;19.90;;;;;;;;;;5051571;28;20048;-75
2021/12/17 13:47:12;;;;;;;31.40;19.17;;;;;;;;;;5061454;28;20036;-75
2021/12/17 13:49:40;;;;;;;34.35;20.55;;;;;;;;;;5055617;28;20119;-74
2021/12/17 13:52:06;;;;;;;31.42;20.35;;;;;;;;;;5065394;28;20016;-75
2021/12/17 13:54:32;;;;;;;34.63;23.45;;;;;;;;;;5051978;28;20380;-75
2021/12/17 13:56:59;;;;;;;30.25;20.38;;;;;;;;;;5046995;28;20068;-75
2021/12/17 13:59:33;;;;;;;30.92;19.65;;;;;;;;;;5049776;28;20061;-75
2021/12/17 14:02:06;;;;;;;32.08;20.63;;;;;;;;;;5050935;28;20045;-75
2021/12/17 14:04:32;;;;;;;30.38;18.17;;;;;;;;;;5048740;28;20029;-75
2021/12/17 14:07:04;;;;;;;34.88;22.15;;;;;;;;;;5043465;28;20092;-75
2021/12/17 14:09:30;;;;;;;35.58;22.08;;;;;;;;;;5048009;28;20124;-75
2021/12/17 14:11:58;;;;;;;34.22;21.45;;;;;;;;;;5040845;28;20958;-75
2021/12/17 14:14:25;;;;;;;38.55;23.42;;;;;;;;;;5049141;28;20521;-76
2021/12/17 14:16:58;;;;;;;38.40;21.92;;;;;;;;;;5050562;28;20029;-75
2021/12/17 14:19:44;;;;;;;33.88;20.80;;;;;;;;;;5049002;28;20033;-75
2021/12/17 14:22:20;;;;;;;36.67;23.55;;;;;;;;;;5037849;28;20025;-74
2021/12/17 14:24:46;;;;;;;37.15;22.27;;;;;;;;;;5044031;28;20052;-75
2021/12/17 14:27:13;;;;;;;39.97;23.40;;;;;;;;;;5049724;28;20024;-75
2021/12/17 14:29:39;;;;;;;35.50;22.40;;;;;;;;;;5049186;28;20040;-75
2021/12/17 14:32:05;;;;;;;38.15;23.45;;;;;;;;;;5044630;28;20497;-75
2021/12/17 14:34:40;;;;;;;36.03;20.65;;;;;;;;;;5047224;28;20072;-75
2021/12/17 14:37:06;;;;;;;38.80;22.80;;;;;;;;;;5048609;28;20031;-75
2021/12/17 14:39:38;;;;;;;35.00;21.70;;;;;;;;;;5040809;28;20036;-75
2021/12/17 14:42:07;;;;;;;38.13;22.70;;;;;;;;;;5060913;28;20042;-75
2021/12/17 14:44:48;;;;;;;37.75;23.42;;;;;;;;;;5064871;28;20531;-75
2021/12/17 15:01:28;;;;;;;44.50;25.08;;;;;;;;;;5046390;28;20052;-75
2021/12/17 15:03:54;;;;;;;63.72;36.83;;;;;;;;;;5056111;28;20028;-75
2021/12/17 15:06:20;;;;;;;62.25;34.47;;;;;;;;;;5044631;28;20048;-75
2021/12/17 15:08:46;;;;;;;46.17;26.80;;;;;;;;;;5052881;28;20029;-75
2021/12/17 15:11:30;;;;;;;41.60;25.40;;;;;;;;;;5058119;28;20414;-75
2021/12/17 15:13:56;;;;;;;41.67;25.80;;;;;;;;;;5050709;28;20043;-75
2021/12/17 15:16:22;;;;;;;40.47;24.60;;;;;;;;;;5048960;28;20039;-75
2021/12/17 15:18:48;;;;;;;34.45;22.05;;;;;;;;;;5052725;28;20096;-75
2021/12/17 15:21:14;;;;;;;43.20;25.50;;;;;;;;;;5053077;28;20178;-75
2021/12/17 15:23:40;;;;;;;40.22;25.13;;;;;;;;;;5057027;28;20542;-75
2021/12/17 15:26:06;;;;;;;43.10;24.73;;;;;;;;;;5050624;28;20387;-75
2021/12/17 15:28:33;;;;;;;44.40;26.17;;;;;;;;;;5052951;28;20036;-75
2021/12/17 15:31:02;;;;;;;41.80;25.73;;;;;;;;;;5048293;28;20041;-75
2021/12/17 15:33:28;;;;;;;47.17;27.33;;;;;;;;;;5042918;28;20021;-75
2021/12/17 15:35:55;;;;;;;47.65;27.98;;;;;;;;;;5043617;28;20037;-75
2021/12/17 15:38:23;;;;;;;45.08;28.67;;;;;;;;;;5046524;28;20033;-75
2021/12/17 15:40:49;;;;;;;39.30;22.75;;;;;;;;;;5045380;28;20033;-75
2021/12/17 15:43:16;;;;;;;43.40;25.42;;;;;;;;;;5048588;28;20029;-75
2021/12/17 15:45:43;;;;;;;44.78;27.00;;;;;;;;;;5047116;28;20667;-74
2021/12/17 15:48:10;;;;;;;46.28;26.08;;;;;;;;;;5049553;28;20039;-75
2021/12/17 15:50:36;;;;;;;42.38;25.02;;;;;;;;;;5046574;28;20060;-75
2021/12/17 15:53:02;;;;;;;43.08;24.25;;;;;;;;;;5049055;28;20025;-75
2021/12/17 15:55:30;;;;;;;42.28;25.98;;;;;;;;;;5051032;28;20048;-75
2021/12/17 15:57:57;;;;;;;40.17;23.45;;;;;;;;;;5046013;28;20029;-75
2021/12/17 16:00:25;;;;;;;37.97;22.70;;;;;;;;;;5048621;28;20033;-75
2021/12/17 16:02:51;;;;;;;44.20;26.08;;;;;;;;;;5048809;28;20036;-75
2021/12/17 16:05:20;;;;;;;43.55;25.48;;;;;;;;;;5043886;28;20041;-75
2021/12/17 16:07:48;;;;;;;44.17;25.30;;;;;;;;;;5036172;28;20031;-75
2021/12/17 16:23:12;;;;;;;41.17;23.23;;;;;;;;;;5054195;28;20394;-74
2021/12/17 16:25:38;;;;;;;38.42;23.52;;;;;;;;;;5062726;28;20041;-75
2021/12/17 16:28:04;;;;;;;41.00;23.23;;;;;;;;;;5050786;28;20064;-75
2021/12/17 16:30:30;;;;;;;40.67;24.60;;;;;;;;;;5046805;28;20041;-75
2021/12/17 16:32:57;;;;;;;39.22;23.10;;;;;;;;;;5060208;28;20057;-75
2021/12/17 16:35:23;;;;;;;37.13;21.67;;;;;;;;;;5051604;28;20037;-75
2021/12/17 16:37:49;;;;;;;40.85;22.40;;;;;;;;;;5065983;28;20024;-75
2021/12/17 16:40:16;;;;;;;43.42;23.48;;;;;;;;;;5049121;28;20045;-75
2021/12/17 16:42:42;;;;;;;38.35;21.80;;;;;;;;;;5050807;28;20804;-75
2021/12/17 16:45:31;;;;;;;40.20;23.50;;;;;;;;;;5053288;28;20106;-75
2021/12/17 16:48:02;;;;;;;35.08;21.40;;;;;;;;;;5050332;28;20025;-75
2021/12/17 16:50:29;;;;;;;37.72;21.85;;;;;;;;;;5058798;28;20053;-74
2021/12/17 16:52:55;;;;;;;40.13;22.63;;;;;;;;;;5051724;28;20031;-75
2021/12/17 16:55:22;;;;;;;43.88;25.52;;;;;;;;;;5057020;28;20807;-75
2021/12/17 16:57:48;;;;;;;37.33;22.08;;;;;;;;;;5052037;28;20017;-76
2021/12/17 17:00:15;;;;;;;42.03;24.25;;;;;;;;;;5048895;28;20041;-75
2021/12/17 17:02:41;;;;;;;42.97;27.17;;;;;;;;;;5052502;28;20040;-75
2021/12/17 17:05:07;;;;;;;43.13;23.02;;;;;;;;;;5046037;28;20037;-75
2021/12/17 17:07:33;;;;;;;42.15;24.58;;;;;;;;;;5051212;28;20103;-75
2021/12/17 17:09:59;;;;;;;37.25;22.05;;;;;;;;;;5057407;28;20115;-76
2021/12/17 17:12:28;;;;;;;43.75;26.92;;;;;;;;;;5042413;28;20068;-74
2021/12/17 17:14:54;;;;;;;38.30;23.05;;;;;;;;;;5050136;28;20024;-75
2021/12/17 17:17:20;;;;;;;42.38;24.70;;;;;;;;;;5051570;28;20036;-75
2021/12/17 17:19:46;;;;;;;40.10;24.55;;;;;;;;;;5057133;28;20024;-75
2021/12/17 17:22:15;;;;;;;39.78;22.15;;;;;;;;;;5076037;28;20433;-75
2021/12/17 17:24:41;;;;;;;39.45;23.83;;;;;;;;;;5058451;28;20043;-75
2021/12/17 17:27:07;;;;;;;38.88;22.38;;;;;;;;;;5050044;28;20060;-75
2021/12/17 17:29:33;;;;;;;39.88;21.98;;;;;;;;;;5057489;28;20625;-75
2021/12/17 17:31:59;;;;;;;42.28;23.55;;;;;;;;;;5048223;28;20476;-75
2021/12/17 17:34:27;;;;;;;40.83;24.42;;;;;;;;;;5061016;28;20033;-75
2021/12/17 17:36:53;;;;;;;43.55;23.77;;;;;;;;;;5053182;28;20021;-75
2021/12/17 17:39:19;;;;;;;40.13;22.83;;;;;;;;;;5057514;28;20044;-76
2021/12/17 17:41:45;;;;;;;35.65;21.63;;;;;;;;;;5050143;28;20032;-75